THY4LK LTCW-LTFM
Flight info
| Callsign | THY4LK |
|---|---|
| Flight time | 2h 3m |
| Altitude | 34000 |
| Route | N0435F340 INLA1B INLAP UT301 NARLI UG8 GEM UT32 BUK UA4 ERSEN ERSE2A |
| Aircraft | A320/M-SDE3FGHIRWY/LB1 |
Departure
| Time | 2026-04-18 05:00 |
|---|---|
| Airport | Hakkari Yüksekova Airport (LTCW) |
Arrival
| Time | 2026-04-18 07:03 |
|---|---|
| Airport | İstanbul Airport (LTFM) |
| Time | Latitude | Longitude | Altitude | Speed | Heading |
|---|---|---|---|---|---|
| 2026-04-18 04:47 | 37.54595 | 44.25549 | 6132 ft | 0 kts | 223° |
| 2026-04-18 04:57 | 37.54594 | 44.25547 | 6147 ft | 1 kts | 223° |
| 2026-04-18 04:57 | 37.54591 | 44.25544 | 6147 ft | 0 kts | 223° |
| 2026-04-18 04:57 | 37.54588 | 44.25541 | 6147 ft | 1 kts | 223° |
| 2026-04-18 04:58 | 37.54568 | 44.25522 | 6135 ft | 6 kts | 211° |
| 2026-04-18 04:58 | 37.54522 | 44.25491 | 6146 ft | 9 kts | 208° |
| 2026-04-18 04:58 | 37.54454 | 44.25451 | 6141 ft | 13 kts | 205° |
| 2026-04-18 04:58 | 37.54353 | 44.25391 | 6144 ft | 17 kts | 208° |
| 2026-04-18 04:59 | 37.54346 | 44.25274 | 6139 ft | 9 kts | 296° |
| 2026-04-18 04:59 | 37.54349 | 44.25267 | 6145 ft | 0 kts | 297° |
| 2026-04-18 04:59 | 37.54362 | 44.25234 | 6145 ft | 24 kts | 297° |
| 2026-04-18 04:59 | 37.54560 | 44.24766 | 6139 ft | 94 kts | 298° |
| 2026-04-18 05:00 | 37.54966 | 44.23824 | 6138 ft | 148 kts | 298° |
| 2026-04-18 05:00 | 37.55536 | 44.22513 | 6209 ft | 186 kts | 300° |
| 2026-04-18 05:00 | 37.56151 | 44.21121 | 6936 ft | 179 kts | 299° |
| 2026-04-18 05:00 | 37.56755 | 44.19751 | 7632 ft | 179 kts | 298° |
| 2026-04-18 05:01 | 37.57360 | 44.18395 | 8275 ft | 174 kts | 299° |
| 2026-04-18 05:01 | 37.57946 | 44.17100 | 8813 ft | 172 kts | 298° |
| 2026-04-18 05:01 | 37.58566 | 44.15719 | 8963 ft | 191 kts | 297° |
| 2026-04-18 05:01 | 37.59231 | 44.14201 | 9234 ft | 205 kts | 295° |
| 2026-04-18 05:02 | 37.59931 | 44.12557 | 9502 ft | 220 kts | 295° |
| 2026-04-18 05:02 | 37.60730 | 44.10848 | 9872 ft | 233 kts | 304° |
| 2026-04-18 05:02 | 37.61865 | 44.09324 | 10265 ft | 246 kts | 320° |
| 2026-04-18 05:02 | 37.63369 | 44.08122 | 10502 ft | 268 kts | 328° |
| 2026-04-18 05:03 | 37.65078 | 44.06943 | 10734 ft | 291 kts | 330° |
| 2026-04-18 05:03 | 37.66812 | 44.05473 | 10893 ft | 310 kts | 310° |
| 2026-04-18 05:03 | 37.67909 | 44.03080 | 11043 ft | 325 kts | 284° |
| 2026-04-18 05:03 | 37.68291 | 44.00274 | 11451 ft | 332 kts | 271° |
| 2026-04-18 05:04 | 37.68307 | 43.97353 | 12090 ft | 334 kts | 265° |
| 2026-04-18 05:04 | 37.68193 | 43.94416 | 12783 ft | 336 kts | 264° |
| 2026-04-18 05:04 | 37.68084 | 43.91467 | 13492 ft | 337 kts | 265° |
| 2026-04-18 05:04 | 37.68034 | 43.88505 | 14173 ft | 339 kts | 266° |
| 2026-04-18 05:05 | 37.68045 | 43.85514 | 14750 ft | 343 kts | 267° |
| 2026-04-18 05:05 | 37.68101 | 43.82482 | 15218 ft | 347 kts | 268° |
| 2026-04-18 05:05 | 37.68187 | 43.79429 | 15720 ft | 350 kts | 268° |
| 2026-04-18 05:05 | 37.68295 | 43.76349 | 16320 ft | 353 kts | 271° |
| 2026-04-18 05:06 | 37.68728 | 43.73278 | 16902 ft | 360 kts | 282° |
| 2026-04-18 05:06 | 37.69532 | 43.70258 | 17464 ft | 364 kts | 285° |
| 2026-04-18 05:06 | 37.70359 | 43.67224 | 18072 ft | 367 kts | 285° |
| 2026-04-18 05:06 | 37.71182 | 43.64157 | 18619 ft | 371 kts | 284° |
| 2026-04-18 05:07 | 37.72008 | 43.61050 | 19183 ft | 373 kts | 284° |
| 2026-04-18 05:07 | 37.72834 | 43.57937 | 19769 ft | 375 kts | 284° |
| 2026-04-18 05:07 | 37.73661 | 43.54810 | 20349 ft | 376 kts | 284° |
| 2026-04-18 05:07 | 37.74490 | 43.51677 | 20905 ft | 377 kts | 284° |
| 2026-04-18 05:08 | 37.75326 | 43.48525 | 21443 ft | 379 kts | 284° |
| 2026-04-18 05:08 | 37.76164 | 43.45367 | 21989 ft | 380 kts | 284° |
| 2026-04-18 05:08 | 37.77007 | 43.42195 | 22548 ft | 382 kts | 284° |
| 2026-04-18 05:08 | 37.77853 | 43.39008 | 23096 ft | 384 kts | 284° |
| 2026-04-18 05:09 | 37.78691 | 43.35839 | 23616 ft | 385 kts | 284° |
| 2026-04-18 05:09 | 37.79540 | 43.32616 | 24054 ft | 387 kts | 284° |
| 2026-04-18 05:09 | 37.80393 | 43.29378 | 24454 ft | 389 kts | 284° |
| 2026-04-18 05:09 | 37.81229 | 43.26118 | 24856 ft | 390 kts | 281° |
| 2026-04-18 05:10 | 37.81725 | 43.22765 | 25258 ft | 388 kts | 272° |
| 2026-04-18 05:10 | 37.81979 | 43.19363 | 25642 ft | 389 kts | 272° |
| 2026-04-18 05:10 | 37.82235 | 43.15947 | 26000 ft | 391 kts | 272° |
| 2026-04-18 05:10 | 37.82493 | 43.12513 | 26364 ft | 393 kts | 272° |
| 2026-04-18 05:11 | 37.82753 | 43.09064 | 26717 ft | 395 kts | 272° |
| 2026-04-18 05:11 | 37.83016 | 43.05591 | 27026 ft | 398 kts | 272° |
| 2026-04-18 05:11 | 37.83282 | 43.02092 | 27334 ft | 401 kts | 272° |
| 2026-04-18 05:11 | 37.83548 | 42.98576 | 27659 ft | 403 kts | 272° |
| 2026-04-18 05:12 | 37.83814 | 42.95038 | 27987 ft | 405 kts | 272° |
| 2026-04-18 05:12 | 37.84077 | 42.91482 | 28323 ft | 407 kts | 272° |
| 2026-04-18 05:12 | 37.84337 | 42.87911 | 28664 ft | 409 kts | 272° |
| 2026-04-18 05:12 | 37.84596 | 42.84329 | 29001 ft | 411 kts | 272° |
| 2026-04-18 05:13 | 37.84857 | 42.80715 | 29339 ft | 413 kts | 272° |
| 2026-04-18 05:13 | 37.85118 | 42.77087 | 29676 ft | 415 kts | 272° |
| 2026-04-18 05:13 | 37.85382 | 42.73444 | 30118 ft | 415 kts | 272° |
| 2026-04-18 05:13 | 37.85644 | 42.69815 | 30472 ft | 415 kts | 272° |
| 2026-04-18 05:14 | 37.85900 | 42.66233 | 30842 ft | 414 kts | 272° |
| 2026-04-18 05:14 | 37.86156 | 42.62610 | 31243 ft | 413 kts | 271° |
| 2026-04-18 05:14 | 37.86409 | 42.58998 | 31679 ft | 410 kts | 271° |
| 2026-04-18 05:14 | 37.86657 | 42.55414 | 32114 ft | 408 kts | 271° |
| 2026-04-18 05:15 | 37.86904 | 42.51840 | 32548 ft | 406 kts | 271° |
| 2026-04-18 05:15 | 37.87146 | 42.48285 | 33004 ft | 404 kts | 270° |
| 2026-04-18 05:15 | 37.87384 | 42.44754 | 33451 ft | 402 kts | 270° |
| 2026-04-18 05:15 | 37.87621 | 42.41234 | 33895 ft | 400 kts | 270° |
| 2026-04-18 05:16 | 37.87857 | 42.37732 | 34040 ft | 401 kts | 270° |
| 2026-04-18 05:16 | 37.88093 | 42.34199 | 34035 ft | 403 kts | 269° |
| 2026-04-18 05:16 | 37.88562 | 42.27117 | 34037 ft | 405 kts | 269° |
| 2026-04-18 05:17 | 37.89030 | 42.19983 | 34142 ft | 408 kts | 269° |
| 2026-04-18 05:17 | 37.89262 | 42.16417 | 34483 ft | 407 kts | 269° |
| 2026-04-18 05:17 | 37.89495 | 42.12860 | 34874 ft | 404 kts | 269° |
| 2026-04-18 05:18 | 37.89727 | 42.09324 | 35283 ft | 401 kts | 269° |
| 2026-04-18 05:18 | 37.89959 | 42.05813 | 35661 ft | 398 kts | 269° |
| 2026-04-18 05:18 | 37.90187 | 42.02338 | 35953 ft | 396 kts | 268° |
| 2026-04-18 05:18 | 37.90405 | 41.98906 | 36013 ft | 395 kts | 268° |
| 2026-04-18 05:19 | 37.90830 | 41.91995 | 36150 ft | 392 kts | 268° |
| 2026-04-18 05:19 | 37.91204 | 41.88573 | 36510 ft | 395 kts | 276° |
| 2026-04-18 05:19 | 37.91985 | 41.85215 | 36851 ft | 400 kts | 283° |
| 2026-04-18 05:20 | 37.93013 | 41.81941 | 37138 ft | 399 kts | 283° |
| 2026-04-18 05:20 | 37.94040 | 41.78680 | 37400 ft | 398 kts | 283° |
| 2026-04-18 05:20 | 37.95062 | 41.75416 | 37595 ft | 398 kts | 283° |
| 2026-04-18 05:20 | 37.96076 | 41.72162 | 37866 ft | 397 kts | 282° |
| 2026-04-18 05:21 | 37.97087 | 41.68905 | 37972 ft | 398 kts | 282° |
| 2026-04-18 05:21 | 37.98103 | 41.65635 | 37983 ft | 398 kts | 282° |
| 2026-04-18 05:21 | 38.00130 | 41.59099 | 37989 ft | 398 kts | 282° |
| 2026-04-18 05:22 | 38.02147 | 41.52554 | 37974 ft | 398 kts | 282° |
| 2026-04-18 05:22 | 38.04165 | 41.46011 | 37970 ft | 399 kts | 281° |
| 2026-04-18 05:23 | 38.06193 | 41.39437 | 37968 ft | 401 kts | 282° |
| 2026-04-18 05:23 | 38.08225 | 41.32847 | 37971 ft | 401 kts | 282° |
| 2026-04-18 05:24 | 38.10250 | 41.26240 | 37968 ft | 401 kts | 281° |
| 2026-04-18 05:24 | 38.12265 | 41.19637 | 37972 ft | 402 kts | 281° |
| 2026-04-18 05:25 | 38.14274 | 41.13053 | 37970 ft | 402 kts | 281° |
| 2026-04-18 05:25 | 38.16329 | 41.06425 | 37958 ft | 404 kts | 281° |
| 2026-04-18 05:26 | 38.18410 | 40.99790 | 37964 ft | 405 kts | 282° |
| 2026-04-18 05:26 | 38.20491 | 40.93134 | 37975 ft | 405 kts | 282° |
| 2026-04-18 05:27 | 38.22564 | 40.86469 | 37970 ft | 406 kts | 282° |
| 2026-04-18 05:27 | 38.24608 | 40.79858 | 37970 ft | 406 kts | 281° |
| 2026-04-18 05:28 | 38.26633 | 40.73151 | 37973 ft | 407 kts | 281° |
| 2026-04-18 05:28 | 38.28641 | 40.66406 | 37983 ft | 408 kts | 281° |
| 2026-04-18 05:29 | 38.30654 | 40.59651 | 37982 ft | 409 kts | 281° |
| 2026-04-18 05:29 | 38.32680 | 40.52860 | 37992 ft | 411 kts | 281° |
| 2026-04-18 05:30 | 38.34707 | 40.46062 | 37992 ft | 410 kts | 281° |
| 2026-04-18 05:30 | 38.36727 | 40.39268 | 37991 ft | 410 kts | 281° |
| 2026-04-18 05:31 | 38.38399 | 40.33615 | 37991 ft | 411 kts | 281° |
| 2026-04-18 05:31 | 38.40755 | 40.25633 | 37989 ft | 412 kts | 281° |
| 2026-04-18 05:32 | 38.42777 | 40.18798 | 37978 ft | 412 kts | 281° |
| 2026-04-18 05:32 | 38.44792 | 40.11959 | 37989 ft | 413 kts | 281° |
| 2026-04-18 05:33 | 38.46805 | 40.05096 | 37977 ft | 413 kts | 281° |
| 2026-04-18 05:33 | 38.48816 | 39.98223 | 37981 ft | 414 kts | 281° |
| 2026-04-18 05:34 | 38.50824 | 39.91335 | 37996 ft | 414 kts | 281° |
| 2026-04-18 05:34 | 38.52832 | 39.84434 | 37986 ft | 415 kts | 281° |
| 2026-04-18 05:35 | 38.54829 | 39.77571 | 37979 ft | 415 kts | 281° |
| 2026-04-18 05:35 | 38.56828 | 39.70673 | 37970 ft | 414 kts | 281° |
| 2026-04-18 05:36 | 38.58819 | 39.63764 | 37986 ft | 414 kts | 282° |
| 2026-04-18 05:36 | 38.60805 | 39.56890 | 37949 ft | 411 kts | 282° |
| 2026-04-18 05:37 | 38.62775 | 39.50032 | 37949 ft | 412 kts | 282° |
| 2026-04-18 05:37 | 38.64776 | 39.43160 | 37947 ft | 412 kts | 282° |
| 2026-04-18 05:38 | 38.66794 | 39.36285 | 37932 ft | 413 kts | 282° |
| 2026-04-18 05:38 | 38.68799 | 39.29405 | 37952 ft | 413 kts | 282° |
| 2026-04-18 05:39 | 38.70746 | 39.22503 | 37941 ft | 409 kts | 277° |
| 2026-04-18 05:39 | 38.71861 | 39.15456 | 37932 ft | 404 kts | 273° |
| 2026-04-18 05:40 | 38.72910 | 39.08388 | 37935 ft | 405 kts | 273° |
| 2026-04-18 05:40 | 38.73970 | 39.01300 | 37925 ft | 405 kts | 273° |
| 2026-04-18 05:41 | 38.75026 | 38.94214 | 37908 ft | 406 kts | 273° |
| 2026-04-18 05:41 | 38.76073 | 38.87143 | 37919 ft | 407 kts | 273° |
| 2026-04-18 05:42 | 38.77147 | 38.80020 | 37924 ft | 407 kts | 273° |
| 2026-04-18 05:42 | 38.78227 | 38.72891 | 37937 ft | 407 kts | 273° |
| 2026-04-18 05:43 | 38.79296 | 38.65756 | 37926 ft | 408 kts | 273° |
| 2026-04-18 05:43 | 38.80180 | 38.59824 | 37920 ft | 408 kts | 273° |
| 2026-04-18 05:44 | 38.81240 | 38.52686 | 37917 ft | 407 kts | 273° |
| 2026-04-18 05:44 | 38.82296 | 38.45554 | 37934 ft | 408 kts | 273° |
| 2026-04-18 05:45 | 38.83345 | 38.38412 | 37916 ft | 408 kts | 273° |
| 2026-04-18 05:45 | 38.84385 | 38.31265 | 37910 ft | 408 kts | 273° |
| 2026-04-18 05:46 | 38.85427 | 38.24090 | 37911 ft | 409 kts | 273° |
| 2026-04-18 05:46 | 38.86469 | 38.16927 | 37906 ft | 409 kts | 273° |
| 2026-04-18 05:47 | 38.87512 | 38.09736 | 37911 ft | 410 kts | 273° |
| 2026-04-18 05:47 | 38.88551 | 38.02532 | 37900 ft | 411 kts | 272° |
| 2026-04-18 05:48 | 38.89583 | 37.95306 | 37887 ft | 411 kts | 272° |
| 2026-04-18 05:48 | 38.90607 | 37.88076 | 37884 ft | 412 kts | 272° |
| 2026-04-18 05:49 | 38.91631 | 37.80840 | 37876 ft | 413 kts | 272° |
| 2026-04-18 05:49 | 38.92658 | 37.73569 | 37864 ft | 414 kts | 272° |
| 2026-04-18 05:50 | 38.93685 | 37.66281 | 37854 ft | 415 kts | 272° |
| 2026-04-18 05:50 | 38.94711 | 37.58978 | 37852 ft | 416 kts | 272° |
| 2026-04-18 05:51 | 38.95725 | 37.51660 | 37893 ft | 417 kts | 272° |
| 2026-04-18 05:51 | 38.96742 | 37.44281 | 37856 ft | 420 kts | 272° |
| 2026-04-18 05:52 | 38.97767 | 37.36880 | 37840 ft | 421 kts | 272° |
| 2026-04-18 05:52 | 38.98793 | 37.29450 | 37843 ft | 422 kts | 272° |
| 2026-04-18 05:53 | 38.99809 | 37.22018 | 37849 ft | 423 kts | 272° |
| 2026-04-18 05:53 | 39.00816 | 37.14567 | 37858 ft | 423 kts | 272° |
| 2026-04-18 05:54 | 39.01821 | 37.07126 | 37841 ft | 422 kts | 272° |
| 2026-04-18 05:54 | 39.02819 | 36.99681 | 37835 ft | 422 kts | 272° |
| 2026-04-18 05:55 | 39.03812 | 36.92243 | 37822 ft | 422 kts | 272° |
| 2026-04-18 05:55 | 39.04810 | 36.84797 | 37842 ft | 422 kts | 273° |
| 2026-04-18 05:56 | 39.05791 | 36.77400 | 37823 ft | 422 kts | 272° |
| 2026-04-18 05:56 | 39.06767 | 36.69972 | 37817 ft | 421 kts | 272° |
| 2026-04-18 05:57 | 39.08222 | 36.58811 | 37802 ft | 421 kts | 272° |
| 2026-04-18 05:58 | 39.08882 | 36.53761 | 37811 ft | 422 kts | 272° |
| 2026-04-18 05:58 | 39.09852 | 36.46306 | 37795 ft | 423 kts | 272° |
| 2026-04-18 05:59 | 39.10815 | 36.38828 | 37789 ft | 424 kts | 272° |
| 2026-04-18 05:59 | 39.11779 | 36.31328 | 37787 ft | 425 kts | 272° |
| 2026-04-18 06:00 | 39.12734 | 36.23826 | 37780 ft | 425 kts | 272° |
| 2026-04-18 06:00 | 39.13687 | 36.16319 | 37783 ft | 425 kts | 272° |
| 2026-04-18 06:01 | 39.14633 | 36.08813 | 37783 ft | 425 kts | 272° |
| 2026-04-18 06:01 | 39.16016 | 36.01375 | 37779 ft | 435 kts | 285° |
| 2026-04-18 06:02 | 39.18705 | 35.94309 | 37779 ft | 440 kts | 290° |
| 2026-04-18 06:02 | 39.21461 | 35.87258 | 37782 ft | 440 kts | 290° |
| 2026-04-18 06:03 | 39.24206 | 35.80197 | 37777 ft | 441 kts | 290° |
| 2026-04-18 06:03 | 39.26942 | 35.73122 | 37764 ft | 441 kts | 290° |
| 2026-04-18 06:04 | 39.29682 | 35.66037 | 37790 ft | 442 kts | 290° |
| 2026-04-18 06:04 | 39.32407 | 35.58975 | 37774 ft | 442 kts | 290° |
| 2026-04-18 06:05 | 39.35144 | 35.51855 | 37767 ft | 443 kts | 290° |
| 2026-04-18 06:05 | 39.37880 | 35.44716 | 37788 ft | 443 kts | 291° |
| 2026-04-18 06:06 | 39.40619 | 35.37562 | 37772 ft | 445 kts | 291° |
| 2026-04-18 06:06 | 39.43359 | 35.30385 | 37770 ft | 445 kts | 291° |
| 2026-04-18 06:07 | 39.46102 | 35.23198 | 37775 ft | 446 kts | 291° |
| 2026-04-18 06:07 | 39.48838 | 35.15997 | 37784 ft | 446 kts | 291° |
| 2026-04-18 06:08 | 39.51569 | 35.08782 | 37777 ft | 446 kts | 291° |
| 2026-04-18 06:08 | 39.54300 | 35.01558 | 37775 ft | 447 kts | 291° |
| 2026-04-18 06:09 | 39.57030 | 34.94321 | 37788 ft | 447 kts | 291° |
| 2026-04-18 06:09 | 39.59756 | 34.87079 | 37785 ft | 447 kts | 291° |
| 2026-04-18 06:10 | 39.62463 | 34.79876 | 37783 ft | 447 kts | 291° |
| 2026-04-18 06:10 | 39.65183 | 34.72621 | 37776 ft | 447 kts | 291° |
| 2026-04-18 06:11 | 39.67894 | 34.65357 | 37791 ft | 447 kts | 291° |
| 2026-04-18 06:11 | 39.70600 | 34.58108 | 37782 ft | 446 kts | 291° |
| 2026-04-18 06:12 | 39.73297 | 34.50858 | 37779 ft | 446 kts | 291° |
| 2026-04-18 06:12 | 39.75988 | 34.43606 | 37781 ft | 445 kts | 292° |
| 2026-04-18 06:13 | 39.78674 | 34.36350 | 37777 ft | 445 kts | 291° |
| 2026-04-18 06:13 | 39.81355 | 34.29093 | 37769 ft | 445 kts | 291° |
| 2026-04-18 06:14 | 39.84024 | 34.21828 | 37772 ft | 445 kts | 291° |
| 2026-04-18 06:14 | 39.86682 | 34.14556 | 37778 ft | 445 kts | 291° |
| 2026-04-18 06:15 | 39.89326 | 34.07332 | 37770 ft | 445 kts | 292° |
| 2026-04-18 06:15 | 39.91990 | 34.00061 | 37763 ft | 445 kts | 292° |
| 2026-04-18 06:16 | 39.94652 | 33.92779 | 37784 ft | 445 kts | 292° |
| 2026-04-18 06:16 | 39.97303 | 33.85482 | 37769 ft | 445 kts | 292° |
| 2026-04-18 06:17 | 39.99951 | 33.78183 | 37777 ft | 446 kts | 292° |
| 2026-04-18 06:17 | 40.02600 | 33.70869 | 37770 ft | 446 kts | 292° |
| 2026-04-18 06:18 | 40.05243 | 33.63547 | 37775 ft | 446 kts | 292° |
| 2026-04-18 06:18 | 40.07877 | 33.56226 | 37766 ft | 446 kts | 291° |
| 2026-04-18 06:19 | 40.10511 | 33.48895 | 37769 ft | 446 kts | 291° |
| 2026-04-18 06:19 | 40.12511 | 33.43319 | 37770 ft | 446 kts | 291° |
| 2026-04-18 06:20 | 40.13560 | 33.40393 | 37779 ft | 446 kts | 292° |
| 2026-04-18 06:20 | 40.16181 | 33.33058 | 37768 ft | 445 kts | 292° |
| 2026-04-18 06:21 | 40.18796 | 33.25708 | 37783 ft | 445 kts | 291° |
| 2026-04-18 06:21 | 40.21402 | 33.18361 | 37777 ft | 445 kts | 291° |
| 2026-04-18 06:22 | 40.23996 | 33.11008 | 37778 ft | 444 kts | 289° |
| 2026-04-18 06:22 | 40.26042 | 33.03409 | 37774 ft | 443 kts | 285° |
| 2026-04-18 06:23 | 40.28023 | 32.95774 | 37770 ft | 443 kts | 285° |
| 2026-04-18 06:23 | 40.30001 | 32.88138 | 37769 ft | 442 kts | 285° |
| 2026-04-18 06:24 | 40.31967 | 32.80506 | 37770 ft | 442 kts | 285° |
| 2026-04-18 06:24 | 40.33931 | 32.72876 | 37770 ft | 442 kts | 285° |
| 2026-04-18 06:25 | 40.35877 | 32.65291 | 37763 ft | 441 kts | 285° |
| 2026-04-18 06:25 | 40.37828 | 32.57666 | 37774 ft | 441 kts | 285° |
| 2026-04-18 06:26 | 40.39771 | 32.50051 | 37777 ft | 440 kts | 285° |
| 2026-04-18 06:26 | 40.41703 | 32.42459 | 37774 ft | 438 kts | 285° |
| 2026-04-18 06:27 | 40.43624 | 32.34872 | 37772 ft | 438 kts | 285° |
| 2026-04-18 06:27 | 40.45545 | 32.27280 | 37788 ft | 438 kts | 285° |
| 2026-04-18 06:28 | 40.47452 | 32.19713 | 37781 ft | 436 kts | 286° |
| 2026-04-18 06:28 | 40.49551 | 32.12244 | 37788 ft | 436 kts | 289° |
| 2026-04-18 06:29 | 40.51813 | 32.04861 | 37798 ft | 435 kts | 289° |
| 2026-04-18 06:29 | 40.54059 | 31.97476 | 37798 ft | 434 kts | 289° |
| 2026-04-18 06:30 | 40.56248 | 31.90083 | 37806 ft | 434 kts | 288° |
| 2026-04-18 06:30 | 40.58391 | 31.82722 | 37826 ft | 434 kts | 288° |
| 2026-04-18 06:31 | 40.60346 | 31.75225 | 37823 ft | 433 kts | 285° |
| 2026-04-18 06:31 | 40.62149 | 31.67587 | 37575 ft | 443 kts | 285° |
| 2026-04-18 06:31 | 40.63064 | 31.63718 | 37307 ft | 443 kts | 285° |
| 2026-04-18 06:32 | 40.64003 | 31.59850 | 36972 ft | 442 kts | 286° |
| 2026-04-18 06:32 | 40.64949 | 31.56015 | 36580 ft | 439 kts | 287° |
| 2026-04-18 06:32 | 40.65896 | 31.52207 | 36194 ft | 436 kts | 287° |
| 2026-04-18 06:32 | 40.66835 | 31.48429 | 35835 ft | 432 kts | 287° |
| 2026-04-18 06:33 | 40.67763 | 31.44682 | 35468 ft | 429 kts | 287° |
| 2026-04-18 06:33 | 40.68678 | 31.40958 | 35097 ft | 425 kts | 288° |
| 2026-04-18 06:33 | 40.69580 | 31.37273 | 34732 ft | 421 kts | 288° |
| 2026-04-18 06:33 | 40.70172 | 31.34845 | 34508 ft | 420 kts | 288° |
| 2026-04-18 06:34 | 40.71060 | 31.31183 | 34154 ft | 418 kts | 289° |
| 2026-04-18 06:34 | 40.71943 | 31.27548 | 33793 ft | 415 kts | 289° |
| 2026-04-18 06:34 | 40.72820 | 31.23929 | 33390 ft | 413 kts | 289° |
| 2026-04-18 06:34 | 40.73970 | 31.19179 | 32851 ft | 409 kts | 289° |
| 2026-04-18 06:35 | 40.74834 | 31.15611 | 32562 ft | 408 kts | 289° |
| 2026-04-18 06:35 | 40.75414 | 31.13210 | 32394 ft | 407 kts | 288° |
| 2026-04-18 06:35 | 40.76272 | 31.09675 | 32025 ft | 402 kts | 288° |
| 2026-04-18 06:35 | 40.77118 | 31.06174 | 31588 ft | 400 kts | 288° |
| 2026-04-18 06:36 | 40.77949 | 31.02730 | 31160 ft | 398 kts | 287° |
| 2026-04-18 06:36 | 40.78788 | 30.99211 | 30722 ft | 396 kts | 287° |
| 2026-04-18 06:36 | 40.79617 | 30.95753 | 30305 ft | 395 kts | 287° |
| 2026-04-18 06:36 | 40.80447 | 30.92302 | 29873 ft | 394 kts | 286° |
| 2026-04-18 06:37 | 40.81261 | 30.88912 | 29455 ft | 392 kts | 287° |
| 2026-04-18 06:37 | 40.82078 | 30.85494 | 29050 ft | 389 kts | 287° |
| 2026-04-18 06:37 | 40.82888 | 30.82096 | 28657 ft | 387 kts | 287° |
| 2026-04-18 06:37 | 40.83694 | 30.78714 | 28269 ft | 385 kts | 287° |
| 2026-04-18 06:38 | 40.84490 | 30.75349 | 27896 ft | 383 kts | 287° |
| 2026-04-18 06:38 | 40.85279 | 30.72002 | 27501 ft | 381 kts | 287° |
| 2026-04-18 06:38 | 40.86066 | 30.68665 | 27113 ft | 380 kts | 287° |
| 2026-04-18 06:38 | 40.86692 | 30.65293 | 26731 ft | 377 kts | 277° |
| 2026-04-18 06:39 | 40.87036 | 30.61858 | 26371 ft | 377 kts | 277° |
| 2026-04-18 06:39 | 40.87375 | 30.58419 | 25993 ft | 377 kts | 277° |
| 2026-04-18 06:39 | 40.87706 | 30.54999 | 25623 ft | 375 kts | 276° |
| 2026-04-18 06:39 | 40.88034 | 30.51588 | 25260 ft | 373 kts | 276° |
| 2026-04-18 06:40 | 40.88494 | 30.48226 | 24885 ft | 371 kts | 285° |
| 2026-04-18 06:40 | 40.89441 | 30.45074 | 24519 ft | 369 kts | 297° |
| 2026-04-18 06:40 | 40.90824 | 30.42228 | 24166 ft | 368 kts | 308° |
| 2026-04-18 06:40 | 40.92500 | 30.39681 | 23804 ft | 367 kts | 311° |
| 2026-04-18 06:41 | 40.94191 | 30.37166 | 23444 ft | 365 kts | 311° |
| 2026-04-18 06:41 | 40.95876 | 30.34664 | 23045 ft | 363 kts | 311° |
| 2026-04-18 06:41 | 40.97556 | 30.32176 | 22689 ft | 361 kts | 311° |
| 2026-04-18 06:41 | 40.99223 | 30.29704 | 22335 ft | 359 kts | 311° |
| 2026-04-18 06:42 | 41.00879 | 30.27244 | 21951 ft | 357 kts | 310° |
| 2026-04-18 06:42 | 41.02520 | 30.24805 | 21570 ft | 354 kts | 310° |
| 2026-04-18 06:42 | 41.04136 | 30.22364 | 21218 ft | 350 kts | 307° |
| 2026-04-18 06:42 | 41.05334 | 30.19594 | 20962 ft | 346 kts | 288° |
| 2026-04-18 06:43 | 41.05791 | 30.16533 | 20711 ft | 343 kts | 269° |
| 2026-04-18 06:43 | 41.05536 | 30.13371 | 20459 ft | 341 kts | 259° |
| 2026-04-18 06:43 | 41.05158 | 30.10317 | 20217 ft | 341 kts | 260° |
| 2026-04-18 06:43 | 41.04777 | 30.07222 | 19968 ft | 340 kts | 259° |
| 2026-04-18 06:44 | 41.04396 | 30.04133 | 19727 ft | 339 kts | 260° |
| 2026-04-18 06:44 | 41.04022 | 30.01080 | 19473 ft | 334 kts | 260° |
| 2026-04-18 06:44 | 41.03646 | 29.98053 | 19105 ft | 332 kts | 260° |
| 2026-04-18 06:44 | 41.03272 | 29.95044 | 18720 ft | 331 kts | 260° |
| 2026-04-18 06:45 | 41.02896 | 29.92038 | 18324 ft | 330 kts | 261° |
| 2026-04-18 06:45 | 41.02521 | 29.89038 | 17896 ft | 330 kts | 261° |
| 2026-04-18 06:45 | 41.02146 | 29.86051 | 17500 ft | 328 kts | 261° |
| 2026-04-18 06:45 | 41.01768 | 29.83077 | 17111 ft | 327 kts | 261° |
| 2026-04-18 06:46 | 41.01391 | 29.80115 | 16728 ft | 325 kts | 261° |
| 2026-04-18 06:46 | 41.01021 | 29.77168 | 16343 ft | 324 kts | 261° |
| 2026-04-18 06:46 | 41.00657 | 29.74236 | 15965 ft | 323 kts | 262° |
| 2026-04-18 06:46 | 41.00292 | 29.71306 | 15572 ft | 322 kts | 262° |
| 2026-04-18 06:47 | 40.99924 | 29.68381 | 15200 ft | 321 kts | 262° |
| 2026-04-18 06:47 | 40.99555 | 29.65468 | 14822 ft | 321 kts | 262° |
| 2026-04-18 06:47 | 40.99183 | 29.62556 | 14436 ft | 321 kts | 262° |
| 2026-04-18 06:47 | 40.98807 | 29.59647 | 14046 ft | 321 kts | 262° |
| 2026-04-18 06:48 | 40.98431 | 29.56738 | 13671 ft | 321 kts | 262° |
| 2026-04-18 06:48 | 40.98056 | 29.53830 | 13254 ft | 320 kts | 262° |
| 2026-04-18 06:48 | 40.97679 | 29.50934 | 12868 ft | 318 kts | 263° |
| 2026-04-18 06:48 | 40.97304 | 29.48062 | 12497 ft | 317 kts | 263° |
| 2026-04-18 06:49 | 40.96935 | 29.45198 | 12117 ft | 315 kts | 263° |
| 2026-04-18 06:49 | 40.96571 | 29.42344 | 11818 ft | 311 kts | 263° |
| 2026-04-18 06:49 | 40.96212 | 29.39537 | 11481 ft | 309 kts | 264° |
| 2026-04-18 06:49 | 40.95854 | 29.36741 | 11114 ft | 308 kts | 264° |
| 2026-04-18 06:50 | 40.95494 | 29.33951 | 10745 ft | 308 kts | 264° |
| 2026-04-18 06:50 | 40.95131 | 29.31160 | 10371 ft | 308 kts | 264° |
| 2026-04-18 06:50 | 40.94761 | 29.28355 | 10004 ft | 309 kts | 264° |
| 2026-04-18 06:50 | 40.94394 | 29.25594 | 9617 ft | 310 kts | 264° |
| 2026-04-18 06:51 | 40.94026 | 29.22794 | 9230 ft | 310 kts | 264° |
| 2026-04-18 06:51 | 40.93659 | 29.19987 | 8901 ft | 310 kts | 264° |
| 2026-04-18 06:51 | 40.93289 | 29.17167 | 8583 ft | 307 kts | 264° |
| 2026-04-18 06:51 | 40.92924 | 29.14416 | 8219 ft | 305 kts | 264° |
| 2026-04-18 06:52 | 40.92557 | 29.11651 | 7833 ft | 305 kts | 264° |
| 2026-04-18 06:52 | 40.92193 | 29.08889 | 7420 ft | 306 kts | 264° |
| 2026-04-18 06:52 | 40.91833 | 29.06162 | 7284 ft | 296 kts | 264° |
| 2026-04-18 06:52 | 40.91485 | 29.03531 | 7156 ft | 286 kts | 264° |
| 2026-04-18 06:53 | 40.91135 | 29.00980 | 7043 ft | 278 kts | 261° |
| 2026-04-18 06:53 | 40.90665 | 28.98534 | 6849 ft | 272 kts | 259° |
| 2026-04-18 06:53 | 40.90167 | 28.96126 | 6537 ft | 272 kts | 258° |
| 2026-04-18 06:53 | 40.89652 | 28.93718 | 6284 ft | 272 kts | 259° |
| 2026-04-18 06:54 | 40.89142 | 28.91332 | 6132 ft | 269 kts | 259° |
| 2026-04-18 06:54 | 40.88633 | 28.88941 | 5829 ft | 269 kts | 259° |
| 2026-04-18 06:54 | 40.88132 | 28.86564 | 5596 ft | 269 kts | 259° |
| 2026-04-18 06:54 | 40.87796 | 28.84172 | 5441 ft | 259 kts | 279° |
| 2026-04-18 06:55 | 40.88263 | 28.81981 | 5320 ft | 243 kts | 310° |
| 2026-04-18 06:55 | 40.89387 | 28.80440 | 5192 ft | 227 kts | 336° |
| 2026-04-18 06:55 | 40.90813 | 28.79734 | 5014 ft | 215 kts | 353° |
| 2026-04-18 06:55 | 40.92276 | 28.79300 | 4689 ft | 216 kts | 353° |
| 2026-04-18 06:56 | 40.93738 | 28.78866 | 4369 ft | 215 kts | 353° |
| 2026-04-18 06:56 | 40.95184 | 28.78432 | 4155 ft | 212 kts | 353° |
| 2026-04-18 06:56 | 40.96618 | 28.77999 | 4036 ft | 212 kts | 353° |
| 2026-04-18 06:56 | 40.98023 | 28.77575 | 3997 ft | 203 kts | 353° |
| 2026-04-18 06:57 | 40.99404 | 28.77159 | 4003 ft | 203 kts | 353° |
| 2026-04-18 06:57 | 41.02141 | 28.76350 | 4009 ft | 200 kts | 356° |
| 2026-04-18 06:57 | 41.03511 | 28.76151 | 4004 ft | 191 kts | 2° |
| 2026-04-18 06:58 | 41.04780 | 28.76086 | 4001 ft | 178 kts | 4° |
| 2026-04-18 06:58 | 41.06016 | 28.76054 | 4008 ft | 174 kts | 4° |
| 2026-04-18 06:58 | 41.07150 | 28.76028 | 3991 ft | 157 kts | 4° |
| 2026-04-18 06:58 | 41.08209 | 28.76008 | 3842 ft | 148 kts | 5° |
| 2026-04-18 06:59 | 41.09239 | 28.75990 | 3668 ft | 149 kts | 5° |
| 2026-04-18 06:59 | 41.10277 | 28.75971 | 3484 ft | 150 kts | 5° |
| 2026-04-18 06:59 | 41.11323 | 28.75953 | 3294 ft | 155 kts | 4° |
| 2026-04-18 06:59 | 41.12460 | 28.75933 | 3104 ft | 174 kts | 4° |
| 2026-04-18 07:00 | 41.13723 | 28.75910 | 2840 ft | 188 kts | 4° |
| 2026-04-18 07:00 | 41.15075 | 28.75884 | 2573 ft | 192 kts | 5° |
| 2026-04-18 07:00 | 41.16400 | 28.75855 | 2290 ft | 185 kts | 6° |
| 2026-04-18 07:00 | 41.17607 | 28.75832 | 2063 ft | 172 kts | 1° |
| 2026-04-18 07:01 | 41.18776 | 28.75809 | 1836 ft | 165 kts | 3° |
| 2026-04-18 07:01 | 41.19926 | 28.75787 | 1613 ft | 159 kts | 4° |
| 2026-04-18 07:01 | 41.20997 | 28.75766 | 1392 ft | 148 kts | 4° |
| 2026-04-18 07:01 | 41.21994 | 28.75747 | 1182 ft | 138 kts | 4° |
| 2026-04-18 07:02 | 41.22899 | 28.75730 | 1022 ft | 128 kts | 1° |
| 2026-04-18 07:02 | 41.23782 | 28.75711 | 826 ft | 128 kts | 0° |
| 2026-04-18 07:02 | 41.24663 | 28.75686 | 675 ft | 129 kts | 1° |
| 2026-04-18 07:02 | 41.25546 | 28.75676 | 481 ft | 124 kts | 360° |
| 2026-04-18 07:03 | 41.26440 | 28.75665 | 336 ft | 126 kts | 360° |
| 2026-04-18 07:03 | 41.27209 | 28.75655 | 297 ft | 88 kts | 359° |
| 2026-04-18 07:03 | 41.27660 | 28.75649 | 284 ft | 51 kts | 359° |
| 2026-04-18 07:03 | 41.27962 | 28.75637 | 267 ft | 41 kts | 351° |
| 2026-04-18 07:04 | 41.28160 | 28.75495 | 258 ft | 24 kts | 323° |
| 2026-04-18 07:04 | 41.28140 | 28.75371 | 259 ft | 16 kts | 201° |